Time;durP1;ratioP1;P1;durP2;ratioP2;P2;SDS_P1;SDS_P2;PMS_P1;PMS_P2;Temp;Humidity;BMP_temperature;BMP_pressure;BME280_temperature;BME280_humidity;BME280_pressure;Samples;Min_cycle;Max_cycle;Signal;HPM_P1;HPM_P2
2021/11/17 02:27:44;;;;;;;44.40;12.20;;;6.50;99.90;;;;;;5040114;28;20036;-75
2021/11/17 02:30:23;;;;;;;38.55;11.10;;;6.50;99.90;;;;;;5038459;28;20029;-75
2021/11/17 02:33:13;;;;;;;41.85;11.70;;;6.50;99.90;;;;;;5053718;28;20029;-75
2021/11/17 02:35:52;;;;;;;39.80;10.57;;;6.50;99.90;;;;;;5054090;28;20033;-74
2021/11/17 02:38:23;;;;;;;;;;;6.50;99.90;;;;;;5020812;28;20458;-75
2021/11/17 02:40:58;;;;;;;38.45;10.95;;;6.50;99.90;;;;;;5053263;28;20257;-75
2021/11/17 02:43:49;;;;;;;43.80;12.43;;;6.50;99.90;;;;;;5035675;28;20013;-75
2021/11/17 02:46:26;;;;;;;39.83;11.35;;;6.60;99.90;;;;;;5053527;28;20025;-75
2021/11/17 02:49:08;;;;;;;37.55;10.40;;;6.50;99.90;;;;;;5035675;28;20049;-74
2021/11/17 02:51:49;;;;;;;47.40;12.05;;;6.60;99.90;;;;;;5053784;28;20055;-75
2021/11/17 02:54:51;;;;;;;38.92;11.27;;;6.60;99.90;;;;;;5052104;28;20025;-74
2021/11/17 02:57:19;;;;;;;41.03;11.45;;;6.60;99.90;;;;;;5039691;28;20014;-74
2021/11/17 03:00:00;;;;;;;43.08;11.73;;;6.60;99.90;;;;;;5057478;28;20033;-74
2021/11/17 03:02:25;;;;;;;49.10;11.70;;;6.60;99.90;;;;;;5057290;28;20024;-75
2021/11/17 03:05:23;;;;;;;37.15;10.68;;;6.60;99.90;;;;;;5056152;28;20025;-75
2021/11/17 03:08:16;;;;;;;39.53;10.60;;;6.60;99.90;;;;;;5057068;28;20032;-74
2021/11/17 03:10:54;;;;;;;39.35;10.93;;;6.60;99.90;;;;;;5032216;28;20111;-74
2021/11/17 03:13:35;;;;;;;39.70;10.93;;;6.60;99.90;;;;;;5035760;28;20072;-75
2021/11/17 03:16:37;;;;;;;38.00;10.43;;;6.60;99.90;;;;;;5035950;28;20026;-74
2021/11/17 03:19:08;;;;;;;47.05;11.75;;;6.60;99.90;;;;;;5036433;28;20041;-75
2021/11/17 03:21:59;;;;;;;38.55;10.93;;;6.60;99.90;;;;;;5037184;28;20025;-75
2021/11/17 03:25:15;;;;;;;46.25;10.57;;;6.60;99.90;;;;;;5036090;28;20486;-75
2021/11/17 03:28:06;;;;;;;32.13;9.63;;;6.60;99.90;;;;;;5032942;28;20064;-76
2021/11/17 03:30:47;;;;;;;42.10;10.27;;;6.60;99.90;;;;;;5021739;28;20044;-76
2021/11/17 03:33:13;;;;;;;51.58;11.65;;;6.60;99.90;;;;;;5035848;28;20099;-75
2021/11/17 03:36:13;;;;;;;43.08;12.32;;;6.60;99.90;;;;;;5036762;28;20021;-76
2021/11/17 03:38:46;;;;;;;43.67;11.57;;;6.60;99.90;;;;;;5019195;28;20022;-76
2021/11/17 03:41:46;;;;;;;45.95;11.40;;;6.60;99.90;;;;;;5035877;28;20044;-76
2021/11/17 03:44:15;;;;;;;34.03;9.38;;;6.50;99.90;;;;;;5036986;28;20104;-75
2021/11/17 03:46:44;;;;;;;37.55;10.93;;;6.60;99.90;;;;;;5036577;28;20032;-76
2021/11/17 03:49:41;;;;;;;34.95;10.43;;;6.60;99.90;;;;;;5035483;28;20072;-75
2021/11/17 03:52:19;;;;;;;41.28;10.07;;;6.70;99.90;;;;;;5018774;28;20032;-76
2021/11/17 03:55:42;;;;;;;37.00;10.95;;;6.70;99.90;;;;;;5035957;28;20021;-75
2021/11/17 03:58:45;;;;;;;33.15;9.63;;;6.70;99.90;;;;;;5033512;28;20025;-75
2021/11/17 04:01:39;;;;;;;38.10;10.30;;;6.70;99.90;;;;;;5054283;28;20105;-75
2021/11/17 04:04:26;;;;;;;40.15;10.57;;;6.70;99.90;;;;;;5019917;28;20044;-75
2021/11/17 04:07:00;;;;;;;38.28;9.95;;;6.70;99.90;;;;;;5034651;28;20036;-75
2021/11/17 04:09:50;;;;;;;42.80;10.70;;;6.70;99.90;;;;;;5037003;28;20029;-74
2021/11/17 04:13:04;;;;;;;35.83;9.82;;;6.70;99.90;;;;;;5021006;28;20029;-75
2021/11/17 04:15:35;;;;;;;36.63;9.48;;;6.70;99.90;;;;;;5019641;28;20576;-75
2021/11/17 04:18:22;;;;;;;34.88;9.65;;;6.70;99.90;;;;;;5036648;28;20025;-75
2021/11/17 04:20:50;;;;;;;32.47;9.93;;;6.70;99.90;;;;;;5036563;28;20032;-75
2021/11/17 04:23:16;;;;;;;45.63;10.77;;;6.70;99.90;;;;;;5036125;28;20091;-75
2021/11/17 04:25:41;;;;;;;41.97;10.65;;;6.60;99.90;;;;;;5053038;28;20037;-75
2021/11/17 04:28:16;;;;;;;37.22;9.93;;;6.60;99.90;;;;;;5054649;28;20029;-75
2021/11/17 04:31:00;;;;;;;37.80;8.65;;;6.60;99.90;;;;;;5055896;28;20033;-75
2021/11/17 04:33:35;;;;;;;33.03;8.77;;;6.60;99.90;;;;;;5036857;28;20065;-75
2021/11/17 04:36:32;;;;;;;42.92;10.80;;;6.50;99.90;;;;;;5034816;28;20390;-75
2021/11/17 04:39:22;;;;;;;38.10;9.48;;;6.50;99.90;;;;;;5034679;28;20025;-76
2021/11/17 04:42:33;;;;;;;40.20;9.05;;;6.40;99.90;;;;;;5034255;28;20037;-76
2021/11/17 04:44:58;;;;;;;41.88;11.10;;;6.50;99.90;;;;;;5023905;28;20033;-76
2021/11/17 04:47:36;;;;;;;43.25;10.65;;;6.40;99.90;;;;;;5034150;28;20026;-76
2021/11/17 04:50:49;;;;;;;36.95;9.95;;;6.50;99.90;;;;;;5035527;28;20022;-76
2021/11/17 04:53:47;;;;;;;35.95;9.27;;;6.50;99.90;;;;;;5008668;28;20037;-75
2021/11/17 04:57:15;;;;;;;46.58;10.57;;;6.50;99.90;;;;;;5034500;28;20398;-75
2021/11/17 04:59:41;;;;;;;;;;;6.50;99.90;;;;;;5017275;28;20025;-76
2021/11/17 05:02:28;;;;;;;49.97;10.88;;;8.20;99.90;;;;;;5035270;28;19905;-75
2021/11/17 05:05:02;;;;;;;40.17;9.63;;;6.60;99.90;;;;;;5035443;28;20033;-75
2021/11/17 05:07:40;;;;;;;35.90;10.18;;;6.60;99.90;;;;;;5035253;28;20029;-76
2021/11/17 05:10:16;;;;;;;36.25;10.05;;;6.60;99.90;;;;;;5034312;28;20021;-76
2021/11/17 05:12:49;;;;;;;41.03;10.40;;;6.70;99.90;;;;;;5034056;28;20034;-76
2021/11/17 05:15:24;;;;;;;43.58;10.13;;;6.70;99.90;;;;;;5038429;28;20029;-76
2021/11/17 05:18:15;;;;;;;36.28;10.23;;;6.60;99.90;;;;;;5054654;28;20025;-75
2021/11/17 05:21:05;;;;;;;42.10;10.88;;;6.70;99.90;;;;;;5021325;28;20060;-75
2021/11/17 05:23:48;;;;;;;33.80;7.78;;;6.70;99.90;;;;;;5053993;28;20408;-74
2021/11/17 05:26:32;;;;;;;39.45;10.38;;;6.80;99.90;;;;;;5054880;28;20029;-75
2021/11/17 05:29:04;;;;;;;35.88;9.40;;;6.70;99.90;;;;;;5038385;28;20539;-75
2021/11/17 05:31:53;;;;;;;39.35;10.60;;;6.70;99.90;;;;;;5036747;28;20478;-76
2021/11/17 05:34:57;;;;;;;38.75;9.20;;;6.70;99.90;;;;;;5036658;28;20493;-75
2021/11/17 05:37:54;;;;;;;39.33;10.27;;;6.70;99.90;;;;;;5026469;28;20406;-75
2021/11/17 05:40:32;;;;;;;41.03;11.05;;;6.70;99.90;;;;;;5033601;28;20056;-74
2021/11/17 05:43:12;;;;;;;39.20;10.82;;;6.80;99.90;;;;;;5033925;28;20026;-75
2021/11/17 05:46:05;;;;;;;40.22;11.75;;;6.80;99.90;;;;;;5033576;28;20072;-74
2021/11/17 05:48:49;;;;;;;40.45;11.18;;;6.80;99.90;;;;;;5013190;28;20085;-74
2021/11/17 05:51:25;;;;;;;41.50;10.63;;;6.80;99.90;;;;;;5033608;28;20025;-75
2021/11/17 05:54:08;;;;;;;37.58;10.60;;;6.90;99.90;;;;;;5033189;28;20029;-75
2021/11/17 05:56:34;;;;;;;35.30;10.23;;;6.90;99.90;;;;;;5033597;28;20025;-75
2021/11/17 05:59:44;;;;;;;41.67;12.00;;;6.90;99.90;;;;;;5033328;28;20490;-75
2021/11/17 06:02:15;;;;;;;41.17;10.82;;;6.90;99.90;;;;;;5036655;28;20032;-75
2021/11/17 06:04:40;;;;;;;43.83;11.68;;;7.00;99.90;;;;;;5033135;28;20021;-75
2021/11/17 06:07:06;;;;;;;42.17;11.02;;;7.10;99.90;;;;;;5034166;28;20433;-74
2021/11/17 06:09:32;;;;;;;38.65;11.50;;;7.10;99.90;;;;;;5034148;28;20397;-75
2021/11/17 06:12:01;;;;;;;45.55;12.40;;;7.00;99.90;;;;;;5032949;28;20022;-75
2021/11/17 06:14:30;;;;;;;42.92;11.00;;;7.00;99.90;;;;;;5032823;28;20112;-76
2021/11/17 06:16:59;;;;;;;39.33;10.35;;;7.00;99.90;;;;;;5034041;28;20025;-75
2021/11/17 06:19:28;;;;;;;45.92;12.38;;;7.00;99.90;;;;;;5033916;28;20164;-75
2021/11/17 06:21:54;;;;;;;37.45;11.65;;;7.00;99.90;;;;;;5034073;28;20018;-76
2021/11/17 06:24:23;;;;;;;49.05;13.00;;;7.10;99.90;;;;;;5033955;28;20071;-76
2021/11/17 06:26:49;;;;;;;38.50;11.63;;;7.10;99.90;;;;;;5034467;28;20101;-77
2021/11/17 06:29:23;;;;;;;52.65;13.50;;;7.10;99.90;;;;;;5033759;28;20040;-76
2021/11/17 06:31:50;;;;;;;39.40;13.50;;;7.10;99.90;;;;;;5032614;28;20025;-77
2021/11/17 06:34:32;;;;;;;54.53;13.77;;;7.10;99.90;;;;;;5033631;28;20026;-76
2021/11/17 06:37:00;;;;;;;47.47;11.60;;;7.20;99.90;;;;;;5032713;28;20033;-75
2021/11/17 06:39:27;;;;;;;43.05;12.50;;;7.20;99.90;;;;;;5032360;28;20022;-74
2021/11/17 06:41:53;;;;;;;47.03;13.60;;;7.20;99.90;;;;;;5033674;28;20021;-73
2021/11/17 06:44:20;;;;;;;48.25;12.10;;;7.20;99.90;;;;;;5033929;28;20359;-72
2021/11/17 06:46:46;;;;;;;50.22;14.45;;;7.30;99.90;;;;;;5032500;28;20029;-73
2021/11/17 06:49:12;;;;;;;45.97;12.45;;;7.30;99.90;;;;;;5033573;28;20029;-73
2021/11/17 06:51:37;;;;;;;51.92;13.23;;;7.30;99.90;;;;;;5032224;28;20482;-73
2021/11/17 06:54:03;;;;;;;52.60;14.32;;;7.30;99.90;;;;;;5032222;28;20080;-73
2021/11/17 06:56:29;;;;;;;49.55;14.73;;;7.30;99.90;;;;;;5032357;28;20108;-74
2021/11/17 06:58:55;;;;;;;61.17;15.73;;;7.30;99.90;;;;;;5032119;28;20470;-74
2021/11/17 07:01:21;;;;;;;51.10;14.20;;;7.30;99.90;;;;;;5033550;28;20025;-76
2021/11/17 07:03:47;;;;;;;55.35;14.85;;;7.30;99.90;;;;;;5034304;28;20148;-76
2021/11/17 07:06:12;;;;;;;54.15;15.57;;;7.30;99.90;;;;;;5033469;28;20071;-76
2021/11/17 07:08:39;;;;;;;59.00;14.25;;;7.20;99.90;;;;;;5033811;28;20116;-77
2021/11/17 07:11:05;;;;;;;55.10;14.65;;;7.30;99.90;;;;;;5032960;28;20017;-78
2021/11/17 07:13:31;;;;;;;52.92;12.68;;;7.30;99.90;;;;;;5034313;28;20056;-77
2021/11/17 07:15:57;;;;;;;55.95;15.15;;;7.30;99.90;;;;;;5034526;28;20022;-75
2021/11/17 07:18:22;;;;;;;55.40;14.80;;;7.40;99.90;;;;;;5036198;28;20493;-74
2021/11/17 07:20:48;;;;;;;63.38;15.65;;;7.40;99.90;;;;;;5034421;28;20049;-75
2021/11/17 07:23:17;;;;;;;52.65;12.38;;;7.40;99.90;;;;;;5038838;28;20067;-75
2021/11/17 07:25:42;;;;;;;54.63;14.27;;;7.40;99.90;;;;;;5051978;28;20029;-75
2021/11/17 07:28:08;;;;;;;57.03;16.55;;;7.50;99.90;;;;;;5052794;28;20028;-76
2021/11/17 07:30:37;;;;;;;59.28;16.25;;;7.50;99.90;;;;;;5048029;28;20016;-75
2021/11/17 07:33:06;;;;;;;63.05;15.43;;;7.40;99.90;;;;;;5033719;28;20112;-75
2021/11/17 07:35:37;;;;;;;54.40;14.55;;;7.50;99.90;;;;;;5032811;28;20117;-75
2021/11/17 07:38:07;;;;;;;55.33;14.60;;;7.50;99.90;;;;;;5051883;28;20039;-75
2021/11/17 07:40:35;;;;;;;64.35;16.35;;;7.60;99.90;;;;;;5052489;28;20061;-74
2021/11/17 07:43:05;;;;;;;62.53;16.63;;;7.60;99.90;;;;;;5056052;28;20024;-74
2021/11/17 07:45:32;;;;;;;56.28;14.65;;;7.60;99.90;;;;;;5056432;28;20029;-74
2021/11/17 07:47:58;;;;;;;58.05;15.73;;;7.70;99.90;;;;;;5054788;28;20021;-74
2021/11/17 07:50:24;;;;;;;63.08;16.27;;;7.60;99.90;;;;;;5055998;28;20312;-74
2021/11/17 07:52:50;;;;;;;65.68;16.50;;;7.70;99.90;;;;;;5054216;28;20036;-74
2021/11/17 07:55:17;;;;;;;58.40;16.05;;;7.70;99.90;;;;;;5054478;28;20485;-74
2021/11/17 07:57:46;;;;;;;63.10;17.83;;;7.70;99.90;;;;;;5055847;28;20484;-74
2021/11/17 08:00:16;;;;;;;;;;;7.70;99.90;;;;;;5056301;28;20461;-75
2021/11/17 08:02:42;;;;;;;74.78;16.25;;;7.80;99.90;;;;;;5055598;28;20003;-74
2021/11/17 08:05:08;;;;;;;65.47;16.23;;;7.70;99.90;;;;;;5055738;28;20086;-74
2021/11/17 08:07:35;;;;;;;66.40;17.17;;;7.80;99.90;;;;;;5055809;28;20492;-75
2021/11/17 08:10:03;;;;;;;60.22;14.98;;;7.80;99.90;;;;;;5054403;28;20029;-74
2021/11/17 08:12:29;;;;;;;49.75;15.15;;;7.90;99.90;;;;;;5051148;28;20037;-75
2021/11/17 08:14:57;;;;;;;59.55;16.10;;;7.90;99.90;;;;;;5053585;28;20013;-74
2021/11/17 08:17:22;;;;;;;57.78;16.25;;;7.80;99.90;;;;;;5054215;28;20052;-75
2021/11/17 08:19:48;;;;;;;60.42;16.48;;;7.90;99.90;;;;;;5054218;28;20067;-74
2021/11/17 08:22:16;;;;;;;74.05;16.88;;;7.90;99.90;;;;;;5054123;28;20027;-74
2021/11/17 08:24:42;;;;;;;62.45;15.60;;;7.90;99.90;;;;;;5054184;28;20116;-74
2021/11/17 08:27:13;;;;;;;70.45;16.23;;;8.00;99.90;;;;;;5042829;28;20026;-74
2021/11/17 08:29:39;;;;;;;64.28;15.88;;;8.00;99.90;;;;;;5035372;28;20021;-74
2021/11/17 08:32:08;;;;;;;58.15;15.88;;;8.10;99.90;;;;;;5038295;28;20422;-74
2021/11/17 08:34:35;;;;;;;58.88;16.27;;;8.10;99.90;;;;;;5053734;28;20055;-74
2021/11/17 08:37:02;;;;;;;71.93;17.92;;;8.20;99.90;;;;;;5053872;28;20083;-75
2021/11/17 08:39:29;;;;;;;61.83;16.50;;;8.20;99.90;;;;;;5055141;28;20056;-74
2021/11/17 08:41:54;;;;;;;58.58;15.73;;;8.20;99.90;;;;;;5053723;28;20385;-74
2021/11/17 08:44:20;;;;;;;61.85;17.52;;;8.30;99.90;;;;;;5053769;28;20028;-75
2021/11/17 08:46:45;;;;;;;60.25;16.10;;;8.30;99.90;;;;;;5055244;28;20021;-74
2021/11/17 08:49:11;;;;;;;49.53;14.88;;;8.50;99.90;;;;;;5053771;28;20394;-74
2021/11/17 08:51:37;;;;;;;53.22;15.60;;;8.50;99.90;;;;;;5054830;28;20032;-74
2021/11/17 08:54:03;;;;;;;61.80;17.23;;;8.50;99.90;;;;;;5054743;28;20035;-74
2021/11/17 08:56:32;;;;;;;60.08;15.52;;;8.50;99.90;;;;;;5055109;28;20032;-76
2021/11/17 08:58:58;;;;;;;63.33;16.83;;;8.60;99.90;;;;;;5053378;28;20025;-76
2021/11/17 09:01:24;;;;;;;61.33;14.18;;;8.60;99.90;;;;;;5053441;28;20386;-74
2021/11/17 09:03:49;;;;;;;55.47;14.82;;;8.60;99.90;;;;;;5054654;28;20389;-74
2021/11/17 09:06:15;;;;;;;54.08;16.15;;;8.70;99.90;;;;;;5055158;28;20027;-74
2021/11/17 09:08:41;;;;;;;58.63;16.63;;;8.80;99.90;;;;;;5054600;28;20482;-75
2021/11/17 09:11:11;;;;;;;53.50;16.75;;;8.90;99.90;;;;;;5054755;28;20056;-75
2021/11/17 09:13:39;;;;;;;58.30;17.08;;;8.90;99.90;;;;;;5054628;28;20504;-74
2021/11/17 09:16:05;;;;;;;54.13;16.15;;;8.90;99.90;;;;;;5054655;28;20088;-74
2021/11/17 09:18:33;;;;;;;53.75;15.52;;;8.80;99.90;;;;;;5053086;28;20490;-74
2021/11/17 09:21:01;;;;;;;55.63;16.05;;;8.90;99.90;;;;;;5054303;28;20029;-75
2021/11/17 09:23:29;;;;;;;50.33;15.60;;;8.90;99.90;;;;;;5053013;28;20016;-75
2021/11/17 09:25:56;;;;;;;50.03;15.30;;;8.90;99.90;;;;;;5069881;28;20013;-74
2021/11/17 09:28:23;;;;;;;44.42;13.50;;;8.90;99.90;;;;;;5074637;28;20020;-75
2021/11/17 09:30:50;;;;;;;43.42;13.10;;;9.00;99.90;;;;;;5074090;28;20052;-74
2021/11/17 09:33:17;;;;;;;40.85;12.73;;;9.00;99.90;;;;;;5073840;28;20089;-75
2021/11/17 09:35:44;;;;;;;52.35;14.40;;;9.00;99.90;;;;;;5072790;28;20102;-76
2021/11/17 09:38:11;;;;;;;51.60;13.63;;;9.10;99.90;;;;;;5074098;28;20013;-75
2021/11/17 09:40:56;;;;;;;48.95;14.63;;;9.10;99.90;;;;;;5066370;28;20021;-74
2021/11/17 09:43:46;;;;;;;52.28;13.27;;;9.20;99.90;;;;;;5053848;28;20013;-75
2021/11/17 09:46:14;;;;;;;49.15;14.88;;;9.30;99.90;;;;;;5032893;28;20493;-74
2021/11/17 09:48:46;;;;;;;53.07;16.43;;;9.50;99.90;;;;;;5034210;28;20458;-76
2021/11/17 09:51:27;;;;;;;53.58;16.45;;;9.50;99.90;;;;;;5032610;28;20333;-74
2021/11/17 09:54:27;;;;;;;54.83;17.67;;;9.50;99.90;;;;;;5033865;28;20091;-73
2021/11/17 09:57:14;;;;;;;56.30;15.13;;;9.60;99.90;;;;;;5034330;28;20049;-74
2021/11/17 09:59:56;;;;;;;61.00;16.50;;;9.60;99.90;;;;;;5032517;28;20025;-73
2021/11/17 10:02:30;;;;;;;54.90;16.98;;;9.70;99.90;;;;;;5033757;28;20036;-73
2021/11/17 10:05:04;;;;;;;49.17;15.48;;;9.70;99.90;;;;;;5033510;28;20033;-74
2021/11/17 10:13:19;;;;;;;52.80;15.98;;;10.00;99.90;;;;;;5033408;28;20371;-74
2021/11/17 10:15:51;;;;;;;56.80;16.63;;;10.20;99.90;;;;;;5033479;28;20030;-73
2021/11/17 10:18:16;;;;;;;56.47;17.85;;;10.30;99.90;;;;;;5037299;28;20045;-73
2021/11/17 10:20:49;;;;;;;49.10;15.15;;;10.40;99.90;;;;;;5032484;28;20045;-73
2021/11/17 10:23:19;;;;;;;47.40;15.45;;;10.40;99.90;;;;;;5033795;28;20033;-75
2021/11/17 10:26:17;;;;;;;46.65;13.70;;;10.40;99.90;;;;;;5033341;28;20026;-75
2021/11/17 10:28:59;;;;;;;51.53;14.80;;;10.40;99.90;;;;;;5030799;28;20124;-75
2021/11/17 10:31:51;;;;;;;47.60;13.70;;;10.50;99.90;;;;;;5033221;28;20431;-75
2021/11/17 10:34:36;;;;;;;47.30;15.05;;;10.50;99.90;;;;;;5049363;28;20072;-73
2021/11/17 10:37:37;;;;;;;49.75;14.13;;;10.60;99.90;;;;;;5053191;28;20017;-75
2021/11/17 10:40:20;;;;;;;41.95;14.32;;;10.60;99.90;;;;;;5052939;28;20033;-73
2021/11/17 10:42:56;;;;;;;43.60;14.90;;;10.70;99.90;;;;;;5051645;28;20486;-73
2021/11/17 10:45:33;;;;;;;45.45;15.32;;;10.70;99.90;;;;;;5051755;28;20090;-73
2021/11/17 10:47:59;;;;;;;40.67;13.02;;;10.80;99.90;;;;;;5046066;28;20048;-73
2021/11/17 10:50:39;;;;;;;43.72;14.50;;;10.90;99.90;;;;;;5032971;28;20021;-73
2021/11/17 10:53:14;;;;;;;45.60;14.32;;;10.90;99.90;;;;;;5033280;28;20033;-73
2021/11/17 10:55:47;;;;;;;40.88;13.55;;;11.00;99.90;;;;;;5033234;28;20076;-73
2021/11/17 10:58:26;;;;;;;38.90;13.65;;;11.00;99.90;;;;;;5032006;28;20025;-73
2021/11/17 11:00:59;;;;;;;43.92;14.45;;;11.00;99.90;;;;;;5032341;28;20037;-73
2021/11/17 11:03:29;;;;;;;37.33;12.77;;;11.00;99.90;;;;;;5041942;28;20382;-75
2021/11/17 11:06:07;;;;;;;33.45;12.50;;;11.00;99.90;;;;;;5051599;28;20490;-73
2021/11/17 11:08:49;;;;;;;41.25;12.82;;;10.90;99.90;;;;;;5052210;28;20116;-73
2021/11/17 11:11:16;;;;;;;33.58;12.07;;;11.00;99.90;;;;;;5052865;28;20021;-75
2021/11/17 11:13:48;;;;;;;37.35;12.23;;;10.90;99.90;;;;;;5052609;28;20392;-74
2021/11/17 11:16:37;;;;;;;38.25;12.10;;;10.90;99.90;;;;;;5045773;28;20025;-74
2021/11/17 11:19:09;;;;;;;33.78;12.25;;;11.00;99.90;;;;;;5035467;28;20030;-75
2021/11/17 11:21:57;;;;;;;29.65;11.35;;;11.00;99.90;;;;;;5036463;28;20040;-74
2021/11/17 11:24:32;;;;;;;36.72;11.63;;;11.20;99.90;;;;;;5036427;28;20055;-74
2021/11/17 11:26:58;;;;;;;34.22;10.80;;;11.20;99.90;;;;;;5038648;28;20207;-75
2021/11/17 11:29:33;;;;;;;34.88;10.70;;;11.40;99.90;;;;;;5055011;28;20052;-74
2021/11/17 11:32:00;;;;;;;33.60;9.35;;;11.50;99.90;;;;;;5036396;28;20037;-75
2021/11/17 11:34:31;;;;;;;24.08;7.57;;;11.50;99.90;;;;;;5036288;28;20482;-73
2021/11/17 11:36:57;;;;;;;20.92;6.75;;;11.50;99.90;;;;;;5036540;28;20025;-75
2021/11/17 11:39:25;;;;;;;20.05;7.18;;;11.50;99.90;;;;;;5037443;28;20075;-74
2021/11/17 11:42:32;;;;;;;16.33;5.00;;;11.40;99.90;;;;;;5053755;28;20104;-74
2021/11/17 11:45:05;;;;;;;13.75;5.05;;;11.50;99.90;;;;;;5036145;28;20041;-74
2021/11/17 11:47:44;;;;;;;17.80;4.25;;;11.60;99.90;;;;;;5054408;28;20024;-75
2021/11/17 11:50:32;;;;;;;15.15;3.40;;;11.70;99.90;;;;;;5051131;28;20100;-75
2021/11/17 11:53:07;;;;;;;11.85;2.80;;;11.80;99.90;;;;;;5037429;28;20029;-74
2021/11/17 11:55:53;;;;;;;13.38;2.78;;;12.00;99.90;;;;;;5034661;28;20545;-75
2021/11/17 11:58:19;;;;;;;13.13;2.22;;;12.10;99.90;;;;;;5035870;28;20030;-75
2021/11/17 12:00:47;;;;;;;8.27;1.25;;;12.10;99.90;;;;;;5037256;28;20429;-75
2021/11/17 12:03:17;;;;;;;9.07;0.65;;;12.20;99.90;;;;;;5044449;28;20030;-75
2021/11/17 12:05:53;;;;;;;6.95;0.47;;;12.20;99.90;;;;;;5035786;28;20028;-75
2021/11/17 12:08:53;;;;;;;6.03;0.50;;;12.30;99.90;;;;;;5034455;28;20034;-75
2021/11/17 12:11:22;;;;;;;9.43;0.25;;;12.40;99.90;;;;;;5035699;28;20021;-75
2021/11/17 12:14:05;;;;;;;15.43;1.63;;;12.60;99.90;;;;;;5045004;28;20071;-75
2021/11/17 12:16:48;;;;;;;10.23;0.15;;;12.60;99.90;;;;;;5055951;28;20032;-75
2021/11/17 12:19:30;;;;;;;11.63;1.38;;;12.70;99.90;;;;;;5054670;28;20100;-75
2021/11/17 12:22:31;;;;;;;13.30;1.52;;;12.70;99.90;;;;;;5055399;28;20029;-75
2021/11/17 12:25:30;;;;;;;12.48;1.00;;;12.60;99.90;;;;;;5046163;28;20123;-75
2021/11/17 12:28:01;;;;;;;5.45;0.25;;;12.50;99.90;;;;;;5054634;28;20049;-73
2021/11/17 12:30:42;;;;;;;19.05;1.17;;;12.50;99.90;;;;;;5053663;28;20052;-75
2021/11/17 12:33:49;;;;;;;13.27;0.50;;;12.40;99.90;;;;;;5055193;28;20120;-76
2021/11/17 12:36:24;;;;;;;17.42;1.15;;;12.30;99.90;;;;;;5053378;28;20025;-75
2021/11/17 12:38:51;;;;;;;7.20;0.50;;;12.50;99.90;;;;;;5055317;28;20025;-73
2021/11/17 12:41:28;;;;;;;8.27;0.40;;;12.70;99.90;;;;;;5053415;28;20025;-75
2021/11/17 12:44:05;;;;;;;7.47;1.02;;;13.10;99.90;;;;;;5053365;28;20047;-74
2021/11/17 12:46:47;;;;;;;13.95;1.10;;;13.30;99.90;;;;;;5036125;28;20033;-75
2021/11/17 12:49:19;;;;;;;7.18;0.55;;;13.60;99.90;;;;;;5051181;28;20144;-73
2021/11/17 12:52:10;;;;;;;16.63;0.82;;;13.60;99.90;;;;;;5053735;28;20033;-75
2021/11/17 12:54:45;;;;;;;17.58;1.00;;;13.60;99.90;;;;;;5051964;28;20044;-73
2021/11/17 12:57:21;;;;;;;12.95;0.35;;;13.70;99.90;;;;;;5055529;28;20585;-73
2021/11/17 12:59:57;;;;;;;8.60;0.30;;;13.90;99.90;;;;;;5054656;28;20018;-74
2021/11/17 13:02:23;;;;;;;11.90;0.73;;;13.90;99.90;;;;;;5054908;28;20436;-74
2021/11/17 13:04:54;;;;;;;10.48;0.85;;;14.00;99.90;;;;;;5053137;28;20024;-74
2021/11/17 13:07:43;;;;;;;10.05;0.47;;;13.90;99.90;;;;;;5055407;28;20036;-74
2021/11/17 13:10:21;;;;;;;9.57;0.68;;;13.70;99.90;;;;;;5053614;28;20028;-74
2021/11/17 13:12:47;;;;;;;11.02;0.25;;;13.50;99.90;;;;;;5055131;28;20017;-74
2021/11/17 13:15:22;;;;;;;9.52;0.30;;;13.30;99.90;;;;;;5044819;28;20091;-74
2021/11/17 13:17:48;;;;;;;9.18;1.05;;;13.00;99.90;;;;;;5037476;28;20013;-74
2021/11/17 13:20:13;;;;;;;8.68;0.60;;;12.80;99.90;;;;;;5054406;28;20037;-74
2021/11/17 13:22:46;;;;;;;10.70;0.47;;;12.60;99.90;;;;;;5035306;28;20147;-74
2021/11/17 13:25:45;;;;;;;8.63;0.20;;;12.50;99.90;;;;;;5033578;28;20060;-74
2021/11/17 13:28:38;;;;;;;9.55;0.47;;;12.70;99.90;;;;;;5040295;28;20041;-74
2021/11/17 13:31:36;;;;;;;7.20;0.30;;;13.10;99.90;;;;;;5054832;28;20389;-74
2021/11/17 13:34:35;;;;;;;11.70;1.50;;;13.50;99.90;;;;;;5054279;28;20025;-74
2021/11/17 13:37:16;;;;;;;;;;;13.80;99.90;;;;;;5050906;28;20044;-74
2021/11/17 13:39:41;;;;;;;6.70;0.63;;;14.10;99.90;;;;;;5034936;28;19908;-74
2021/11/17 13:42:07;;;;;;;5.80;0.45;;;14.20;99.90;;;;;;5033796;28;20497;-74
2021/11/17 13:44:33;;;;;;;2.83;0.22;;;14.20;99.90;;;;;;5034991;28;20044;-74
2021/11/17 13:47:09;;;;;;;12.02;0.98;;;14.30;99.90;;;;;;5033293;28;20030;-74
2021/11/17 13:49:41;;;;;;;8.43;0.95;;;14.50;99.90;;;;;;5052447;28;20025;-74
2021/11/17 13:52:08;;;;;;;5.47;0.13;;;14.70;99.90;;;;;;5053652;28;20035;-74
2021/11/17 13:54:34;;;;;;;5.05;0.98;;;14.80;99.90;;;;;;5053700;28;20029;-73
2021/11/17 13:57:03;;;;;;;7.03;0.63;;;14.90;99.90;;;;;;5053768;28;20029;-73
2021/11/17 13:59:29;;;;;;;9.25;0.45;;;14.90;99.90;;;;;;5053717;28;20025;-75
2021/11/17 14:01:56;;;;;;;6.68;0.38;;;14.90;99.90;;;;;;5053006;28;20029;-75
2021/11/17 14:04:40;;;;;;;9.13;0.10;;;14.90;99.90;;;;;;5053595;28;20159;-75
2021/11/17 14:07:07;;;;;;;3.92;0.75;;;14.90;99.90;;;;;;5052083;28;20118;-74
2021/11/17 14:09:33;;;;;;;6.97;1.27;;;14.90;99.90;;;;;;5053696;28;20036;-73
2021/11/17 14:12:00;;;;;;;7.85;0.95;;;14.80;99.90;;;;;;5053162;28;20398;-73
2021/11/17 14:14:27;;;;;;;7.53;0.00;;;14.80;99.90;;;;;;5051894;28;20491;-73
2021/11/17 14:16:52;;;;;;;5.68;0.63;;;14.80;99.90;;;;;;5037963;28;20406;-73
2021/11/17 14:19:18;;;;;;;6.95;0.13;;;14.60;99.90;;;;;;5036538;28;20017;-73
2021/11/17 14:21:44;;;;;;;7.88;0.28;;;14.60;99.90;;;;;;5048311;28;20025;-74
2021/11/17 14:24:11;;;;;;;8.77;0.30;;;14.60;99.90;;;;;;5051472;28;20109;-73
2021/11/17 14:26:40;;;;;;;7.25;0.60;;;14.50;99.90;;;;;;5048632;28;20485;-73
2021/11/17 14:29:15;;;;;;;5.95;0.28;;;14.50;99.90;;;;;;5052412;28;20028;-73
2021/11/17 14:31:48;;;;;;;7.40;0.32;;;14.50;99.90;;;;;;5034678;28;20120;-75
2021/11/17 14:34:15;;;;;;;9.48;0.73;;;14.40;99.90;;;;;;5045419;28;20036;-73
2021/11/17 14:36:48;;;;;;;7.20;0.35;;;14.30;99.90;;;;;;5033254;28;20032;-73
2021/11/17 14:39:16;;;;;;;4.75;0.25;;;14.20;99.90;;;;;;5032241;28;20080;-73
2021/11/17 14:41:43;;;;;;;4.97;0.28;;;14.10;99.90;;;;;;5039701;28;20090;-73
2021/11/17 14:44:09;;;;;;;4.65;0.00;;;13.90;99.90;;;;;;5041405;28;20021;-73
2021/11/17 14:46:36;;;;;;;6.10;0.32;;;13.80;99.90;;;;;;5033344;28;20025;-73
2021/11/17 14:49:03;;;;;;;4.68;0.22;;;13.70;99.90;;;;;;5034628;28;20489;-73
2021/11/17 14:51:29;;;;;;;5.28;1.30;;;13.40;99.90;;;;;;5036685;28;20025;-73
2021/11/17 14:53:55;;;;;;;15.05;1.65;;;13.00;99.90;;;;;;5046699;28;20447;-73
2021/11/17 14:56:21;;;;;;;9.45;0.47;;;12.70;99.90;;;;;;5035972;28;20026;-73
2021/11/17 14:58:48;;;;;;;9.55;0.65;;;12.30;99.90;;;;;;5037723;28;20021;-73
2021/11/17 15:01:21;;;;;;;9.25;0.57;;;12.00;99.90;;;;;;5055197;28;20420;-73
2021/11/17 15:03:48;;;;;;;2.17;0.00;;;11.70;99.90;;;;;;5055358;28;20045;-73
2021/11/17 15:06:16;;;;;;;5.03;0.17;;;11.50;99.90;;;;;;5055640;28;20021;-73
2021/11/17 15:08:43;;;;;;;4.90;0.40;;;11.30;99.90;;;;;;5053687;28;20018;-73
2021/11/17 15:11:08;;;;;;;7.60;1.05;;;11.10;99.90;;;;;;5057081;28;20138;-73
2021/11/17 15:13:35;;;;;;;3.42;0.57;;;11.00;99.90;;;;;;5056908;28;20389;-73
2021/11/17 15:16:01;;;;;;;6.45;0.30;;;10.80;99.90;;;;;;5049520;28;20018;-74
2021/11/17 15:18:27;;;;;;;8.35;0.10;;;10.70;99.90;;;;;;5036032;28;20053;-74
2021/11/17 15:20:54;;;;;;;12.50;0.65;;;10.50;99.90;;;;;;5035572;28;20128;-77
2021/11/17 15:23:21;;;;;;;6.40;0.20;;;10.40;99.90;;;;;;5047718;28;20074;-77
2021/11/17 15:25:48;;;;;;;7.05;0.30;;;10.50;99.90;;;;;;5055411;28;20401;-77
2021/11/17 15:28:33;;;;;;;8.70;0.73;;;10.10;99.90;;;;;;5044174;28;20029;-78
2021/11/17 15:31:07;;;;;;;15.65;0.30;;;10.00;99.90;;;;;;5041199;28;20033;-81
2021/11/17 15:33:33;;;;;;;7.60;0.50;;;9.90;99.90;;;;;;5037408;28;20149;-78
2021/11/17 15:35:59;;;;;;;10.50;0.98;;;9.70;99.90;;;;;;5036439;28;20082;-79
2021/11/17 15:38:25;;;;;;;13.52;0.55;;;9.70;99.90;;;;;;5038824;28;20021;-77
2021/11/17 15:40:55;;;;;;;7.72;0.57;;;9.50;99.90;;;;;;5040824;28;20017;-80
2021/11/17 15:43:22;;;;;;;3.67;0.68;;;9.40;99.90;;;;;;5045735;28;20476;-77
2021/11/17 15:45:49;;;;;;;5.55;0.32;;;9.30;99.90;;;;;;5051002;28;20021;-78
2021/11/17 15:48:15;;;;;;;8.40;1.00;;;9.20;99.90;;;;;;5057461;28;20025;-78
2021/11/17 15:51:21;;;;;;;10.63;0.30;;;9.10;99.90;;;;;;5040334;28;20021;-78
2021/11/17 15:53:47;;;;;;;10.23;2.70;;;9.00;99.90;;;;;;5050654;28;20068;-78